sensor_id;sensor_type;location;lat;lon;timestamp;P1;durP1;ratioP1;P2;durP2;ratioP2
69714;SDS011;56981;53.532;49.398;2023-03-11T00:00:15;1.85;;;1.45;;
69714;SDS011;56981;53.532;49.398;2023-03-11T00:02:44;1.95;;;1.05;;
69714;SDS011;56981;53.532;49.398;2023-03-11T00:05:19;2.45;;;1.42;;
69714;SDS011;56981;53.532;49.398;2023-03-11T00:07:50;2.10;;;1.30;;
69714;SDS011;56981;53.532;49.398;2023-03-11T00:10:27;1.40;;;1.30;;
69714;SDS011;56981;53.532;49.398;2023-03-11T00:12:55;2.78;;;1.40;;
69714;SDS011;56981;53.532;49.398;2023-03-11T00:15:21;1.67;;;1.58;;
69714;SDS011;56981;53.532;49.398;2023-03-11T00:17:47;2.55;;;1.30;;
69714;SDS011;56981;53.532;49.398;2023-03-11T00:20:18;3.13;;;1.25;;
69714;SDS011;56981;53.532;49.398;2023-03-11T00:22:47;1.83;;;1.63;;
69714;SDS011;56981;53.532;49.398;2023-03-11T00:25:13;2.03;;;1.52;;
69714;SDS011;56981;53.532;49.398;2023-03-11T00:27:39;2.55;;;1.77;;
69714;SDS011;56981;53.532;49.398;2023-03-11T00:30:06;2.22;;;1.50;;
69714;SDS011;56981;53.532;49.398;2023-03-11T00:32:32;3.65;;;1.70;;
69714;SDS011;56981;53.532;49.398;2023-03-11T00:34:58;2.08;;;1.50;;
69714;SDS011;56981;53.532;49.398;2023-03-11T00:37:24;3.08;;;1.58;;
69714;SDS011;56981;53.532;49.398;2023-03-11T00:39:50;1.65;;;1.48;;
69714;SDS011;56981;53.532;49.398;2023-03-11T00:42:16;2.08;;;1.65;;
69714;SDS011;56981;53.532;49.398;2023-03-11T00:44:42;2.58;;;1.70;;
69714;SDS011;56981;53.532;49.398;2023-03-11T00:47:12;2.80;;;1.50;;
69714;SDS011;56981;53.532;49.398;2023-03-11T00:49:38;1.75;;;1.40;;
69714;SDS011;56981;53.532;49.398;2023-03-11T00:52:04;3.78;;;1.60;;
69714;SDS011;56981;53.532;49.398;2023-03-11T00:54:30;4.50;;;2.47;;
69714;SDS011;56981;53.532;49.398;2023-03-11T00:56:57;2.35;;;1.58;;
69714;SDS011;56981;53.532;49.398;2023-03-11T00:59:23;3.47;;;1.70;;
69714;SDS011;56981;53.532;49.398;2023-03-11T01:01:49;1.92;;;1.50;;
69714;SDS011;56981;53.532;49.398;2023-03-11T01:04:15;1.67;;;1.30;;
69714;SDS011;56981;53.532;49.398;2023-03-11T01:06:41;3.58;;;1.90;;
69714;SDS011;56981;53.532;49.398;2023-03-11T01:09:07;1.77;;;1.30;;
69714;SDS011;56981;53.532;49.398;2023-03-11T01:11:33;4.93;;;1.40;;
69714;SDS011;56981;53.532;49.398;2023-03-11T01:13:59;2.03;;;1.20;;
69714;SDS011;56981;53.532;49.398;2023-03-11T01:16:25;1.85;;;1.55;;
69714;SDS011;56981;53.532;49.398;2023-03-11T01:18:51;2.33;;;1.50;;
69714;SDS011;56981;53.532;49.398;2023-03-11T01:21:17;2.92;;;1.88;;
69714;SDS011;56981;53.532;49.398;2023-03-11T01:23:43;2.35;;;1.70;;
69714;SDS011;56981;53.532;49.398;2023-03-11T01:26:09;1.63;;;1.52;;
69714;SDS011;56981;53.532;49.398;2023-03-11T01:28:35;1.63;;;1.27;;
69714;SDS011;56981;53.532;49.398;2023-03-11T01:31:01;1.65;;;1.38;;
69714;SDS011;56981;53.532;49.398;2023-03-11T01:33:27;2.88;;;1.58;;
69714;SDS011;56981;53.532;49.398;2023-03-11T01:35:57;4.78;;;1.80;;
69714;SDS011;56981;53.532;49.398;2023-03-11T01:38:23;3.15;;;1.40;;
69714;SDS011;56981;53.532;49.398;2023-03-11T01:40:49;2.50;;;1.60;;
69714;SDS011;56981;53.532;49.398;2023-03-11T01:46:14;2.83;;;2.03;;
69714;SDS011;56981;53.532;49.398;2023-03-11T01:48:47;3.65;;;2.15;;
69714;SDS011;56981;53.532;49.398;2023-03-11T01:51:38;3.17;;;1.95;;
69714;SDS011;56981;53.532;49.398;2023-03-11T01:54:11;5.03;;;1.70;;
69714;SDS011;56981;53.532;49.398;2023-03-11T01:56:42;3.17;;;1.65;;
69714;SDS011;56981;53.532;49.398;2023-03-11T01:59:11;4.47;;;1.85;;
69714;SDS011;56981;53.532;49.398;2023-03-11T02:01:42;2.97;;;1.63;;
69714;SDS011;56981;53.532;49.398;2023-03-11T02:04:14;2.58;;;1.80;;
69714;SDS011;56981;53.532;49.398;2023-03-11T02:06:41;2.25;;;1.42;;
69714;SDS011;56981;53.532;49.398;2023-03-11T02:09:07;2.00;;;1.42;;
69714;SDS011;56981;53.532;49.398;2023-03-11T02:11:33;2.38;;;1.40;;
69714;SDS011;56981;53.532;49.398;2023-03-11T02:14:01;2.08;;;1.60;;
69714;SDS011;56981;53.532;49.398;2023-03-11T02:16:29;1.48;;;1.23;;
69714;SDS011;56981;53.532;49.398;2023-03-11T02:18:56;1.45;;;1.35;;
69714;SDS011;56981;53.532;49.398;2023-03-11T02:21:25;1.13;;;1.10;;
69714;SDS011;56981;53.532;49.398;2023-03-11T02:24:11;3.38;;;1.38;;
69714;SDS011;56981;53.532;49.398;2023-03-11T02:29:36;1.60;;;1.38;;
69714;SDS011;56981;53.532;49.398;2023-03-11T02:32:05;2.00;;;1.77;;
69714;SDS011;56981;53.532;49.398;2023-03-11T02:34:34;3.80;;;1.58;;
69714;SDS011;56981;53.532;49.398;2023-03-11T02:37:03;2.40;;;1.70;;
69714;SDS011;56981;53.532;49.398;2023-03-11T02:39:42;2.72;;;1.55;;
69714;SDS011;56981;53.532;49.398;2023-03-11T02:42:17;1.42;;;1.30;;
69714;SDS011;56981;53.532;49.398;2023-03-11T02:44:59;1.70;;;1.40;;
69714;SDS011;56981;53.532;49.398;2023-03-11T02:47:31;1.60;;;1.00;;
69714;SDS011;56981;53.532;49.398;2023-03-11T02:49:58;2.50;;;1.80;;
69714;SDS011;56981;53.532;49.398;2023-03-11T02:52:24;1.63;;;1.33;;
69714;SDS011;56981;53.532;49.398;2023-03-11T02:54:52;2.42;;;1.50;;
69714;SDS011;56981;53.532;49.398;2023-03-11T02:57:18;1.30;;;1.17;;
69714;SDS011;56981;53.532;49.398;2023-03-11T02:59:44;3.67;;;1.40;;
69714;SDS011;56981;53.532;49.398;2023-03-11T03:02:10;1.88;;;1.77;;
69714;SDS011;56981;53.532;49.398;2023-03-11T03:04:39;3.15;;;1.45;;
69714;SDS011;56981;53.532;49.398;2023-03-11T03:07:05;1.73;;;1.60;;
69714;SDS011;56981;53.532;49.398;2023-03-11T03:09:31;2.15;;;1.20;;
69714;SDS011;56981;53.532;49.398;2023-03-11T03:11:59;2.15;;;1.33;;
69714;SDS011;56981;53.532;49.398;2023-03-11T03:14:25;3.28;;;1.92;;
69714;SDS011;56981;53.532;49.398;2023-03-11T03:16:51;2.05;;;1.73;;
69714;SDS011;56981;53.532;49.398;2023-03-11T03:19:17;1.88;;;1.45;;
69714;SDS011;56981;53.532;49.398;2023-03-11T03:21:43;2.63;;;1.80;;
69714;SDS011;56981;53.532;49.398;2023-03-11T03:24:09;2.47;;;1.75;;
69714;SDS011;56981;53.532;49.398;2023-03-11T03:26:35;2.75;;;1.30;;
69714;SDS011;56981;53.532;49.398;2023-03-11T03:29:02;2.90;;;1.60;;
69714;SDS011;56981;53.532;49.398;2023-03-11T03:31:29;2.03;;;1.70;;
69714;SDS011;56981;53.532;49.398;2023-03-11T03:33:55;2.05;;;1.55;;
69714;SDS011;56981;53.532;49.398;2023-03-11T03:36:21;1.83;;;1.40;;
69714;SDS011;56981;53.532;49.398;2023-03-11T03:38:51;2.70;;;1.90;;
69714;SDS011;56981;53.532;49.398;2023-03-11T03:41:18;2.00;;;1.65;;
69714;SDS011;56981;53.532;49.398;2023-03-11T03:43:44;2.75;;;1.52;;
69714;SDS011;56981;53.532;49.398;2023-03-11T03:46:10;2.13;;;1.80;;
69714;SDS011;56981;53.532;49.398;2023-03-11T03:48:36;2.72;;;1.77;;
69714;SDS011;56981;53.532;49.398;2023-03-11T03:51:04;7.35;;;1.67;;
69714;SDS011;56981;53.532;49.398;2023-03-11T03:53:32;4.65;;;2.45;;
69714;SDS011;56981;53.532;49.398;2023-03-11T03:56:06;3.75;;;1.75;;
69714;SDS011;56981;53.532;49.398;2023-03-11T03:58:34;5.15;;;2.40;;
69714;SDS011;56981;53.532;49.398;2023-03-11T04:01:00;4.97;;;3.17;;
69714;SDS011;56981;53.532;49.398;2023-03-11T04:03:27;5.32;;;2.28;;
69714;SDS011;56981;53.532;49.398;2023-03-11T04:05:53;5.38;;;2.30;;
69714;SDS011;56981;53.532;49.398;2023-03-11T04:08:19;4.05;;;2.15;;
69714;SDS011;56981;53.532;49.398;2023-03-11T04:10:54;4.00;;;2.05;;
69714;SDS011;56981;53.532;49.398;2023-03-11T04:13:22;4.32;;;2.40;;
69714;SDS011;56981;53.532;49.398;2023-03-11T04:15:48;2.38;;;1.60;;
69714;SDS011;56981;53.532;49.398;2023-03-11T04:18:14;3.10;;;1.73;;
69714;SDS011;56981;53.532;49.398;2023-03-11T04:20:40;2.85;;;1.60;;
69714;SDS011;56981;53.532;49.398;2023-03-11T04:23:07;2.45;;;1.58;;
69714;SDS011;56981;53.532;49.398;2023-03-11T04:25:33;2.00;;;1.25;;
69714;SDS011;56981;53.532;49.398;2023-03-11T04:27:59;4.60;;;2.28;;
69714;SDS011;56981;53.532;49.398;2023-03-11T04:30:25;2.67;;;1.55;;
69714;SDS011;56981;53.532;49.398;2023-03-11T04:32:51;3.67;;;2.42;;
69714;SDS011;56981;53.532;49.398;2023-03-11T04:35:18;2.10;;;1.77;;
69714;SDS011;56981;53.532;49.398;2023-03-11T04:37:44;2.90;;;1.83;;
69714;SDS011;56981;53.532;49.398;2023-03-11T04:40:10;2.53;;;1.60;;
69714;SDS011;56981;53.532;49.398;2023-03-11T04:42:37;2.42;;;1.80;;
69714;SDS011;56981;53.532;49.398;2023-03-11T04:45:04;1.92;;;1.80;;
69714;SDS011;56981;53.532;49.398;2023-03-11T04:47:31;1.95;;;1.80;;
69714;SDS011;56981;53.532;49.398;2023-03-11T04:49:57;2.42;;;1.88;;
69714;SDS011;56981;53.532;49.398;2023-03-11T04:52:24;2.13;;;1.77;;
69714;SDS011;56981;53.532;49.398;2023-03-11T04:54:50;2.72;;;1.67;;
69714;SDS011;56981;53.532;49.398;2023-03-11T04:57:16;2.95;;;2.00;;
69714;SDS011;56981;53.532;49.398;2023-03-11T04:59:42;3.95;;;2.08;;
69714;SDS011;56981;53.532;49.398;2023-03-11T05:02:07;2.95;;;1.92;;
69714;SDS011;56981;53.532;49.398;2023-03-11T05:04:34;2.00;;;1.50;;
69714;SDS011;56981;53.532;49.398;2023-03-11T05:07:00;3.42;;;2.00;;
69714;SDS011;56981;53.532;49.398;2023-03-11T05:09:26;3.03;;;2.05;;
69714;SDS011;56981;53.532;49.398;2023-03-11T05:11:52;2.10;;;1.58;;
69714;SDS011;56981;53.532;49.398;2023-03-11T05:14:18;2.08;;;1.88;;
69714;SDS011;56981;53.532;49.398;2023-03-11T05:16:44;3.63;;;2.00;;
69714;SDS011;56981;53.532;49.398;2023-03-11T05:19:10;1.75;;;1.60;;
69714;SDS011;56981;53.532;49.398;2023-03-11T05:21:57;2.72;;;2.00;;
69714;SDS011;56981;53.532;49.398;2023-03-11T05:24:42;2.78;;;1.80;;
69714;SDS011;56981;53.532;49.398;2023-03-11T05:27:08;2.53;;;1.60;;
69714;SDS011;56981;53.532;49.398;2023-03-11T05:29:34;3.22;;;1.70;;
69714;SDS011;56981;53.532;49.398;2023-03-11T05:31:59;3.95;;;2.00;;
69714;SDS011;56981;53.532;49.398;2023-03-11T05:34:25;4.32;;;2.38;;
69714;SDS011;56981;53.532;49.398;2023-03-11T05:36:51;3.95;;;2.10;;
69714;SDS011;56981;53.532;49.398;2023-03-11T05:39:17;3.17;;;2.00;;
69714;SDS011;56981;53.532;49.398;2023-03-11T05:41:43;2.33;;;1.88;;
69714;SDS011;56981;53.532;49.398;2023-03-11T05:44:09;2.30;;;2.10;;
69714;SDS011;56981;53.532;49.398;2023-03-11T05:46:36;1.95;;;1.35;;
69714;SDS011;56981;53.532;49.398;2023-03-11T05:49:02;2.65;;;1.90;;
69714;SDS011;56981;53.532;49.398;2023-03-11T05:51:28;1.80;;;1.70;;
69714;SDS011;56981;53.532;49.398;2023-03-11T05:53:54;2.05;;;1.70;;
69714;SDS011;56981;53.532;49.398;2023-03-11T05:56:26;2.42;;;2.22;;
69714;SDS011;56981;53.532;49.398;2023-03-11T05:58:52;3.20;;;2.08;;
69714;SDS011;56981;53.532;49.398;2023-03-11T06:01:19;2.60;;;2.35;;
69714;SDS011;56981;53.532;49.398;2023-03-11T06:03:48;3.05;;;2.30;;
69714;SDS011;56981;53.532;49.398;2023-03-11T06:06:14;3.35;;;2.40;;
69714;SDS011;56981;53.532;49.398;2023-03-11T06:08:42;3.95;;;2.40;;
69714;SDS011;56981;53.532;49.398;2023-03-11T06:11:14;4.20;;;2.97;;
69714;SDS011;56981;53.532;49.398;2023-03-11T06:13:40;4.85;;;2.38;;
69714;SDS011;56981;53.532;49.398;2023-03-11T06:16:07;3.75;;;2.40;;
69714;SDS011;56981;53.532;49.398;2023-03-11T06:18:33;4.88;;;2.55;;
69714;SDS011;56981;53.532;49.398;2023-03-11T06:21:00;2.70;;;2.50;;
69714;SDS011;56981;53.532;49.398;2023-03-11T06:23:27;5.32;;;2.70;;
69714;SDS011;56981;53.532;49.398;2023-03-11T06:25:58;2.92;;;2.47;;
69714;SDS011;56981;53.532;49.398;2023-03-11T06:28:26;3.22;;;2.38;;
69714;SDS011;56981;53.532;49.398;2023-03-11T06:30:55;3.25;;;2.38;;
69714;SDS011;56981;53.532;49.398;2023-03-11T06:33:30;3.47;;;2.53;;
69714;SDS011;56981;53.532;49.398;2023-03-11T06:36:00;4.07;;;3.00;;
69714;SDS011;56981;53.532;49.398;2023-03-11T06:38:27;4.82;;;3.08;;
69714;SDS011;56981;53.532;49.398;2023-03-11T06:40:53;4.28;;;2.40;;
69714;SDS011;56981;53.532;49.398;2023-03-11T06:43:22;5.43;;;2.95;;
69714;SDS011;56981;53.532;49.398;2023-03-11T06:45:49;8.25;;;4.20;;
69714;SDS011;56981;53.532;49.398;2023-03-11T06:48:15;14.07;;;7.63;;
69714;SDS011;56981;53.532;49.398;2023-03-11T06:50:41;14.82;;;8.27;;
69714;SDS011;56981;53.532;49.398;2023-03-11T06:53:07;3.53;;;3.08;;
69714;SDS011;56981;53.532;49.398;2023-03-11T06:55:35;3.15;;;2.50;;
69714;SDS011;56981;53.532;49.398;2023-03-11T06:58:04;3.30;;;2.25;;
69714;SDS011;56981;53.532;49.398;2023-03-11T07:01:04;3.20;;;2.30;;
69714;SDS011;56981;53.532;49.398;2023-03-11T07:03:32;4.35;;;2.40;;
69714;SDS011;56981;53.532;49.398;2023-03-11T07:05:59;4.10;;;3.03;;
69714;SDS011;56981;53.532;49.398;2023-03-11T07:08:26;3.33;;;2.60;;
69714;SDS011;56981;53.532;49.398;2023-03-11T07:13:37;3.53;;;2.22;;
69714;SDS011;56981;53.532;49.398;2023-03-11T07:16:05;3.92;;;2.78;;
69714;SDS011;56981;53.532;49.398;2023-03-11T07:18:33;7.38;;;5.53;;
69714;SDS011;56981;53.532;49.398;2023-03-11T07:21:01;3.97;;;3.17;;
69714;SDS011;56981;53.532;49.398;2023-03-11T07:23:28;4.20;;;3.00;;
69714;SDS011;56981;53.532;49.398;2023-03-11T07:25:55;4.55;;;3.88;;
69714;SDS011;56981;53.532;49.398;2023-03-11T07:28:23;7.22;;;4.85;;
69714;SDS011;56981;53.532;49.398;2023-03-11T07:30:51;5.20;;;3.50;;
69714;SDS011;56981;53.532;49.398;2023-03-11T07:33:18;4.25;;;2.90;;
69714;SDS011;56981;53.532;49.398;2023-03-11T07:35:45;6.03;;;4.00;;
69714;SDS011;56981;53.532;49.398;2023-03-11T07:38:15;6.32;;;3.58;;
69714;SDS011;56981;53.532;49.398;2023-03-11T07:40:42;4.72;;;3.03;;
69714;SDS011;56981;53.532;49.398;2023-03-11T07:43:10;4.35;;;2.78;;
69714;SDS011;56981;53.532;49.398;2023-03-11T07:45:36;3.10;;;2.65;;
69714;SDS011;56981;53.532;49.398;2023-03-11T07:48:02;4.53;;;3.10;;
69714;SDS011;56981;53.532;49.398;2023-03-11T07:50:29;4.50;;;2.97;;
69714;SDS011;56981;53.532;49.398;2023-03-11T07:52:55;5.43;;;3.38;;
69714;SDS011;56981;53.532;49.398;2023-03-11T07:55:21;3.85;;;2.67;;
69714;SDS011;56981;53.532;49.398;2023-03-11T07:57:48;3.00;;;2.40;;
69714;SDS011;56981;53.532;49.398;2023-03-11T08:00:16;4.65;;;2.90;;
69714;SDS011;56981;53.532;49.398;2023-03-11T08:02:44;4.63;;;3.08;;
69714;SDS011;56981;53.532;49.398;2023-03-11T08:05:23;3.83;;;2.53;;
69714;SDS011;56981;53.532;49.398;2023-03-11T08:07:49;3.22;;;2.65;;
69714;SDS011;56981;53.532;49.398;2023-03-11T08:10:15;3.83;;;3.08;;
69714;SDS011;56981;53.532;49.398;2023-03-11T08:12:41;3.20;;;2.50;;
69714;SDS011;56981;53.532;49.398;2023-03-11T08:15:08;3.58;;;2.42;;
69714;SDS011;56981;53.532;49.398;2023-03-11T08:17:34;3.08;;;2.38;;
69714;SDS011;56981;53.532;49.398;2023-03-11T08:20:00;3.75;;;2.88;;
69714;SDS011;56981;53.532;49.398;2023-03-11T08:22:26;2.95;;;2.65;;
69714;SDS011;56981;53.532;49.398;2023-03-11T08:24:52;6.43;;;3.78;;
69714;SDS011;56981;53.532;49.398;2023-03-11T08:27:20;5.32;;;3.40;;
69714;SDS011;56981;53.532;49.398;2023-03-11T08:29:47;3.47;;;2.72;;
69714;SDS011;56981;53.532;49.398;2023-03-11T08:32:13;4.22;;;3.83;;
69714;SDS011;56981;53.532;49.398;2023-03-11T08:34:39;5.10;;;3.40;;
69714;SDS011;56981;53.532;49.398;2023-03-11T08:37:05;5.78;;;3.70;;
69714;SDS011;56981;53.532;49.398;2023-03-11T08:39:32;5.80;;;3.97;;
69714;SDS011;56981;53.532;49.398;2023-03-11T08:41:58;4.57;;;3.30;;
69714;SDS011;56981;53.532;49.398;2023-03-11T08:44:24;4.00;;;2.95;;
69714;SDS011;56981;53.532;49.398;2023-03-11T08:46:50;5.45;;;3.50;;
69714;SDS011;56981;53.532;49.398;2023-03-11T08:49:17;4.05;;;3.25;;
69714;SDS011;56981;53.532;49.398;2023-03-11T08:51:43;3.05;;;2.75;;
69714;SDS011;56981;53.532;49.398;2023-03-11T08:54:18;3.50;;;2.90;;
69714;SDS011;56981;53.532;49.398;2023-03-11T08:56:45;3.83;;;3.15;;
69714;SDS011;56981;53.532;49.398;2023-03-11T08:59:13;4.45;;;3.38;;
69714;SDS011;56981;53.532;49.398;2023-03-11T09:01:39;5.20;;;3.65;;
69714;SDS011;56981;53.532;49.398;2023-03-11T09:04:07;4.55;;;3.35;;
69714;SDS011;56981;53.532;49.398;2023-03-11T09:06:33;4.22;;;3.05;;
69714;SDS011;56981;53.532;49.398;2023-03-11T09:09:00;3.75;;;3.20;;
69714;SDS011;56981;53.532;49.398;2023-03-11T09:11:29;3.17;;;2.67;;
69714;SDS011;56981;53.532;49.398;2023-03-11T09:14:02;3.60;;;2.75;;
69714;SDS011;56981;53.532;49.398;2023-03-11T09:16:29;3.83;;;2.85;;
69714;SDS011;56981;53.532;49.398;2023-03-11T09:18:55;3.80;;;3.05;;
69714;SDS011;56981;53.532;49.398;2023-03-11T09:21:21;3.92;;;3.00;;
69714;SDS011;56981;53.532;49.398;2023-03-11T09:23:48;6.05;;;3.22;;
69714;SDS011;56981;53.532;49.398;2023-03-11T09:26:14;7.28;;;5.32;;
69714;SDS011;56981;53.532;49.398;2023-03-11T09:28:40;9.70;;;5.88;;
69714;SDS011;56981;53.532;49.398;2023-03-11T09:31:07;6.55;;;4.25;;
69714;SDS011;56981;53.532;49.398;2023-03-11T09:33:37;4.40;;;3.75;;
69714;SDS011;56981;53.532;49.398;2023-03-11T09:36:05;6.90;;;4.43;;
69714;SDS011;56981;53.532;49.398;2023-03-11T09:38:31;6.60;;;4.63;;
69714;SDS011;56981;53.532;49.398;2023-03-11T09:41:02;6.82;;;4.28;;
69714;SDS011;56981;53.532;49.398;2023-03-11T09:52:09;6.13;;;3.30;;
69714;SDS011;56981;53.532;49.398;2023-03-11T09:54:46;5.65;;;3.13;;
69714;SDS011;56981;53.532;49.398;2023-03-11T09:57:30;5.22;;;3.03;;
69714;SDS011;56981;53.532;49.398;2023-03-11T09:59:59;4.25;;;3.15;;
69714;SDS011;56981;53.532;49.398;2023-03-11T10:02:29;5.80;;;3.05;;
69714;SDS011;56981;53.532;49.398;2023-03-11T10:04:58;6.18;;;3.70;;
69714;SDS011;56981;53.532;49.398;2023-03-11T10:07:32;7.03;;;4.85;;
69714;SDS011;56981;53.532;49.398;2023-03-11T10:10:04;4.15;;;2.17;;
69714;SDS011;56981;53.532;49.398;2023-03-11T10:18:26;5.47;;;3.47;;
69714;SDS011;56981;53.532;49.398;2023-03-11T10:23:54;3.70;;;2.70;;
69714;SDS011;56981;53.532;49.398;2023-03-11T10:26:48;5.10;;;3.47;;
69714;SDS011;56981;53.532;49.398;2023-03-11T10:29:39;5.28;;;3.00;;
69714;SDS011;56981;53.532;49.398;2023-03-11T10:38:10;4.38;;;2.88;;
69714;SDS011;56981;53.532;49.398;2023-03-11T10:40:55;5.03;;;3.78;;
69714;SDS011;56981;53.532;49.398;2023-03-11T10:43:29;5.60;;;3.70;;
69714;SDS011;56981;53.532;49.398;2023-03-11T10:45:59;3.47;;;3.00;;
69714;SDS011;56981;53.532;49.398;2023-03-11T10:48:36;4.05;;;2.70;;
69714;SDS011;56981;53.532;49.398;2023-03-11T10:51:05;4.25;;;2.83;;
69714;SDS011;56981;53.532;49.398;2023-03-11T10:53:43;5.10;;;3.40;;
69714;SDS011;56981;53.532;49.398;2023-03-11T10:56:48;5.38;;;3.28;;
69714;SDS011;56981;53.532;49.398;2023-03-11T10:59:23;7.32;;;3.83;;
69714;SDS011;56981;53.532;49.398;2023-03-11T11:02:28;6.07;;;2.78;;
69714;SDS011;56981;53.532;49.398;2023-03-11T11:05:24;5.18;;;3.30;;
69714;SDS011;56981;53.532;49.398;2023-03-11T11:08:20;5.40;;;3.50;;
69714;SDS011;56981;53.532;49.398;2023-03-11T11:10:54;5.95;;;3.28;;
69714;SDS011;56981;53.532;49.398;2023-03-11T11:13:25;5.65;;;3.83;;
69714;SDS011;56981;53.532;49.398;2023-03-11T11:18:45;5.47;;;3.17;;
69714;SDS011;56981;53.532;49.398;2023-03-11T11:32:35;17.23;;;9.80;;
69714;SDS011;56981;53.532;49.398;2023-03-11T11:35:06;6.13;;;3.60;;
69714;SDS011;56981;53.532;49.398;2023-03-11T11:37:41;4.20;;;3.30;;
69714;SDS011;56981;53.532;49.398;2023-03-11T11:42:51;4.28;;;3.38;;
69714;SDS011;56981;53.532;49.398;2023-03-11T11:48:52;3.80;;;2.60;;
69714;SDS011;56981;53.532;49.398;2023-03-11T11:51:42;4.93;;;3.33;;
69714;SDS011;56981;53.532;49.398;2023-03-11T11:54:20;4.75;;;2.88;;
69714;SDS011;56981;53.532;49.398;2023-03-11T11:56:58;4.88;;;2.85;;
69714;SDS011;56981;53.532;49.398;2023-03-11T11:59:33;7.68;;;3.88;;
69714;SDS011;56981;53.532;49.398;2023-03-11T12:02:06;10.70;;;5.50;;
69714;SDS011;56981;53.532;49.398;2023-03-11T12:04:49;10.68;;;6.57;;
69714;SDS011;56981;53.532;49.398;2023-03-11T12:07:32;30.50;;;13.75;;
69714;SDS011;56981;53.532;49.398;2023-03-11T12:10:36;40.88;;;16.77;;
69714;SDS011;56981;53.532;49.398;2023-03-11T12:24:34;8.90;;;5.05;;
69714;SDS011;56981;53.532;49.398;2023-03-11T12:30:22;4.55;;;3.42;;
69714;SDS011;56981;53.532;49.398;2023-03-11T12:33:32;6.53;;;3.88;;
69714;SDS011;56981;53.532;49.398;2023-03-11T12:35:55;6.00;;;3.80;;
69714;SDS011;56981;53.532;49.398;2023-03-11T12:40:56;4.57;;;2.75;;
69714;SDS011;56981;53.532;49.398;2023-03-11T12:45:59;8.00;;;4.82;;
69714;SDS011;56981;53.532;49.398;2023-03-11T12:50:52;10.00;;;5.50;;
69714;SDS011;56981;53.532;49.398;2023-03-11T12:53:19;7.90;;;4.65;;
69714;SDS011;56981;53.532;49.398;2023-03-11T12:55:59;6.68;;;3.85;;
69714;SDS011;56981;53.532;49.398;2023-03-11T13:04:20;6.60;;;3.25;;
69714;SDS011;56981;53.532;49.398;2023-03-11T13:07:24;4.38;;;2.70;;
69714;SDS011;56981;53.532;49.398;2023-03-11T13:12:49;5.35;;;2.80;;
69714;SDS011;56981;53.532;49.398;2023-03-11T13:18:02;7.80;;;4.68;;
69714;SDS011;56981;53.532;49.398;2023-03-11T13:28:18;5.78;;;3.60;;
69714;SDS011;56981;53.532;49.398;2023-03-11T13:33:40;4.30;;;2.50;;
69714;SDS011;56981;53.532;49.398;2023-03-11T13:41:37;6.55;;;4.13;;
69714;SDS011;56981;53.532;49.398;2023-03-11T13:46:48;5.28;;;4.10;;
69714;SDS011;56981;53.532;49.398;2023-03-11T13:52:15;10.38;;;6.18;;
69714;SDS011;56981;53.532;49.398;2023-03-11T13:55:34;6.13;;;3.85;;
69714;SDS011;56981;53.532;49.398;2023-03-11T13:57:50;8.48;;;4.95;;
69714;SDS011;56981;53.532;49.398;2023-03-11T14:00:20;7.55;;;4.70;;
69714;SDS011;56981;53.532;49.398;2023-03-11T14:02:54;8.05;;;4.00;;
69714;SDS011;56981;53.532;49.398;2023-03-11T14:05:29;4.18;;;3.08;;
69714;SDS011;56981;53.532;49.398;2023-03-11T14:10:55;14.02;;;6.20;;
69714;SDS011;56981;53.532;49.398;2023-03-11T14:13:40;9.77;;;6.70;;
69714;SDS011;56981;53.532;49.398;2023-03-11T14:16:11;6.55;;;4.88;;
69714;SDS011;56981;53.532;49.398;2023-03-11T14:18:42;6.57;;;3.60;;
69714;SDS011;56981;53.532;49.398;2023-03-11T14:21:17;7.47;;;4.43;;
69714;SDS011;56981;53.532;49.398;2023-03-11T14:23:49;6.25;;;3.20;;
69714;SDS011;56981;53.532;49.398;2023-03-11T14:28:51;5.55;;;3.38;;
69714;SDS011;56981;53.532;49.398;2023-03-11T14:31:30;4.78;;;3.17;;
69714;SDS011;56981;53.532;49.398;2023-03-11T14:33:59;8.25;;;4.30;;
69714;SDS011;56981;53.532;49.398;2023-03-11T14:36:30;11.25;;;5.93;;
69714;SDS011;56981;53.532;49.398;2023-03-11T14:39:04;17.20;;;7.88;;
69714;SDS011;56981;53.532;49.398;2023-03-11T14:41:33;13.95;;;5.85;;
69714;SDS011;56981;53.532;49.398;2023-03-11T14:44:00;9.98;;;6.15;;
69714;SDS011;56981;53.532;49.398;2023-03-11T14:46:27;10.00;;;5.32;;
69714;SDS011;56981;53.532;49.398;2023-03-11T14:48:54;6.43;;;4.05;;
69714;SDS011;56981;53.532;49.398;2023-03-11T14:51:24;10.20;;;4.78;;
69714;SDS011;56981;53.532;49.398;2023-03-11T14:56:28;18.02;;;8.98;;
69714;SDS011;56981;53.532;49.398;2023-03-11T14:59:05;43.45;;;19.98;;
69714;SDS011;56981;53.532;49.398;2023-03-11T15:01:35;16.80;;;7.88;;
69714;SDS011;56981;53.532;49.398;2023-03-11T15:04:11;11.48;;;4.90;;
69714;SDS011;56981;53.532;49.398;2023-03-11T15:06:43;12.65;;;5.65;;
69714;SDS011;56981;53.532;49.398;2023-03-11T15:09:15;15.10;;;6.28;;
69714;SDS011;56981;53.532;49.398;2023-03-11T15:14:30;8.93;;;3.70;;
69714;SDS011;56981;53.532;49.398;2023-03-11T15:19:39;5.30;;;2.25;;
69714;SDS011;56981;53.532;49.398;2023-03-11T15:22:20;3.60;;;2.60;;
69714;SDS011;56981;53.532;49.398;2023-03-11T15:24:59;3.72;;;1.58;;
69714;SDS011;56981;53.532;49.398;2023-03-11T15:29:58;5.60;;;2.65;;
69714;SDS011;56981;53.532;49.398;2023-03-11T15:32:41;5.10;;;2.83;;
69714;SDS011;56981;53.532;49.398;2023-03-11T15:37:38;6.95;;;3.30;;
69714;SDS011;56981;53.532;49.398;2023-03-11T15:40:10;5.82;;;2.83;;
69714;SDS011;56981;53.532;49.398;2023-03-11T15:42:43;7.15;;;3.53;;
69714;SDS011;56981;53.532;49.398;2023-03-11T15:45:11;5.35;;;2.47;;
69714;SDS011;56981;53.532;49.398;2023-03-11T15:47:47;4.85;;;3.35;;
69714;SDS011;56981;53.532;49.398;2023-03-11T15:50:19;7.95;;;4.13;;
69714;SDS011;56981;53.532;49.398;2023-03-11T15:52:54;10.63;;;5.43;;
69714;SDS011;56981;53.532;49.398;2023-03-11T15:55:22;8.13;;;3.80;;
69714;SDS011;56981;53.532;49.398;2023-03-11T15:57:51;6.40;;;3.28;;
69714;SDS011;56981;53.532;49.398;2023-03-11T16:00:27;7.35;;;5.35;;
69714;SDS011;56981;53.532;49.398;2023-03-11T16:02:53;19.98;;;13.77;;
69714;SDS011;56981;53.532;49.398;2023-03-11T16:05:20;8.32;;;5.80;;
69714;SDS011;56981;53.532;49.398;2023-03-11T16:07:48;10.93;;;6.88;;
69714;SDS011;56981;53.532;49.398;2023-03-11T16:10:15;10.60;;;8.50;;
69714;SDS011;56981;53.532;49.398;2023-03-11T16:12:43;7.35;;;4.10;;
69714;SDS011;56981;53.532;49.398;2023-03-11T16:15:20;5.80;;;3.60;;
69714;SDS011;56981;53.532;49.398;2023-03-11T16:17:52;8.13;;;4.80;;
69714;SDS011;56981;53.532;49.398;2023-03-11T16:20:20;10.23;;;5.85;;
69714;SDS011;56981;53.532;49.398;2023-03-11T16:22:49;4.05;;;2.53;;
69714;SDS011;56981;53.532;49.398;2023-03-11T16:25:23;4.07;;;2.25;;
69714;SDS011;56981;53.532;49.398;2023-03-11T16:30:21;4.45;;;2.45;;
69714;SDS011;56981;53.532;49.398;2023-03-11T16:32:48;3.97;;;2.67;;
69714;SDS011;56981;53.532;49.398;2023-03-11T16:35:14;3.28;;;2.60;;
69714;SDS011;56981;53.532;49.398;2023-03-11T16:37:41;4.72;;;2.08;;
69714;SDS011;56981;53.532;49.398;2023-03-11T16:40:12;3.92;;;2.42;;
69714;SDS011;56981;53.532;49.398;2023-03-11T16:42:39;3.83;;;2.63;;
69714;SDS011;56981;53.532;49.398;2023-03-11T16:45:06;3.78;;;1.95;;
69714;SDS011;56981;53.532;49.398;2023-03-11T16:47:32;3.85;;;2.30;;
69714;SDS011;56981;53.532;49.398;2023-03-11T16:49:58;3.50;;;2.03;;
69714;SDS011;56981;53.532;49.398;2023-03-11T16:52:24;2.53;;;1.63;;
69714;SDS011;56981;53.532;49.398;2023-03-11T16:54:50;3.35;;;1.92;;
69714;SDS011;56981;53.532;49.398;2023-03-11T16:57:16;2.90;;;1.80;;